Time;durP1;ratioP1;P1;durP2;ratioP2;P2;SDS_P1;SDS_P2;PMS_P1;PMS_P2;Temp;Humidity;BMP_temperature;BMP_pressure;BME280_temperature;BME280_humidity;BME280_pressure;Samples;Min_cycle;Max_cycle;Signal;HPM_P1;HPM_P2
2023/01/20 00:01:13;;;;;;;15.10;10.23;;;1.40;99.90;;;;;;5010746;28;20623;-63
2023/01/20 00:03:40;;;;;;;14.17;9.23;;;1.40;99.90;;;;;;5010651;28;20241;-63
2023/01/20 00:06:07;;;;;;;12.07;9.60;;;1.40;99.90;;;;;;5010527;28;20677;-63
2023/01/20 00:08:34;;;;;;;14.07;9.03;;;1.40;99.90;;;;;;5010745;28;20184;-67
2023/01/20 00:11:04;;;;;;;15.97;10.10;;;1.40;99.90;;;;;;5087442;28;20184;-65
2023/01/20 00:13:30;;;;;;;15.03;10.20;;;1.50;99.90;;;;;;5094704;28;20259;-62
2023/01/20 00:15:56;;;;;;;12.83;9.20;;;1.40;99.90;;;;;;5113035;28;20167;-65
2023/01/20 00:18:22;;;;;;;11.60;8.90;;;1.40;99.90;;;;;;5112847;28;20514;-64
2023/01/20 00:20:48;;;;;;;13.03;9.20;;;1.30;99.90;;;;;;5112864;28;20175;-64
2023/01/20 00:23:14;;;;;;;12.20;9.73;;;1.20;99.90;;;;;;5112787;28;20173;-64
2023/01/20 00:25:39;;;;;;;12.10;9.13;;;1.20;99.90;;;;;;5112676;28;20207;-63
2023/01/20 00:28:05;;;;;;;15.87;10.47;;;1.10;99.90;;;;;;5112938;28;20183;-63
2023/01/20 00:30:31;;;;;;;13.37;10.17;;;1.20;99.90;;;;;;5113137;28;20175;-64
2023/01/20 00:32:57;;;;;;;15.43;10.80;;;1.20;99.90;;;;;;5113318;28;20537;-64
2023/01/20 00:35:23;;;;;;;13.73;9.67;;;1.20;99.90;;;;;;5113809;28;20178;-67
2023/01/20 00:37:49;;;;;;;16.90;11.57;;;1.20;99.90;;;;;;5094892;28;20185;-63
2023/01/20 00:40:15;;;;;;;18.07;10.73;;;1.30;99.90;;;;;;5113163;28;20182;-63
2023/01/20 00:42:41;;;;;;;15.07;11.03;;;1.30;99.90;;;;;;5113600;28;20179;-63
2023/01/20 00:45:07;;;;;;;15.40;10.40;;;1.40;99.90;;;;;;5117406;28;20684;-63
2023/01/20 00:47:33;;;;;;;13.70;10.60;;;1.40;99.90;;;;;;5117076;28;20702;-64
2023/01/20 00:49:58;;;;;;;16.27;10.43;;;1.40;99.90;;;;;;5117640;28;20167;-62
2023/01/20 00:52:24;;;;;;;13.10;10.07;;;1.30;99.90;;;;;;5117377;28;20182;-62
2023/01/20 00:54:50;;;;;;;15.87;10.57;;;1.40;99.90;;;;;;5116853;28;20180;-63
2023/01/20 00:57:16;;;;;;;18.07;10.23;;;1.40;99.90;;;;;;5098688;28;20597;-63
2023/01/20 00:59:42;;;;;;;13.73;9.33;;;1.30;99.90;;;;;;5098508;28;20270;-65
2023/01/20 01:02:07;;;;;;;14.33;9.60;;;1.30;99.90;;;;;;5116548;28;20621;-63
2023/01/20 01:04:33;;;;;;;12.47;9.60;;;1.20;99.90;;;;;;5116526;28;20167;-65
2023/01/20 01:06:59;;;;;;;15.53;10.27;;;1.20;99.90;;;;;;5116719;28;20243;-63
2023/01/20 01:09:25;;;;;;;12.10;8.97;;;1.10;99.90;;;;;;5116254;28;20176;-63
2023/01/20 01:11:51;;;;;;;16.20;10.03;;;1.10;99.90;;;;;;5116372;28;20178;-63
2023/01/20 01:14:17;;;;;;;18.43;10.53;;;1.10;99.90;;;;;;5116120;28;20216;-65
2023/01/20 01:16:43;;;;;;;13.43;9.70;;;1.10;99.90;;;;;;5116138;28;20219;-64
2023/01/20 01:19:09;;;;;;;11.77;9.20;;;1.00;99.90;;;;;;5116047;28;20163;-63
2023/01/20 01:21:35;;;;;;;11.87;9.60;;;1.10;99.90;;;;;;5116037;28;20202;-63
2023/01/20 01:24:01;;;;;;;12.10;9.53;;;1.00;99.90;;;;;;5116054;28;20645;-63
2023/01/20 01:26:27;;;;;;;13.87;9.40;;;0.90;99.90;;;;;;5116242;28;20195;-64
2023/01/20 01:28:52;;;;;;;12.80;9.07;;;0.90;99.90;;;;;;5116317;28;20176;-65
2023/01/20 01:31:20;;;;;;;15.00;9.57;;;0.80;99.90;;;;;;5099494;28;20167;-65
2023/01/20 01:33:47;;;;;;;15.13;9.80;;;0.80;99.90;;;;;;5124546;28;20239;-64
2023/01/20 01:36:15;;;;;;;13.00;9.37;;;0.80;99.90;;;;;;5115673;28;20177;-64
2023/01/20 01:38:42;;;;;;;13.93;9.77;;;0.80;99.90;;;;;;5115438;28;20656;-62
2023/01/20 01:41:12;;;;;;;13.03;9.37;;;0.70;99.90;;;;;;5115703;28;20181;-62
2023/01/20 01:43:39;;;;;;;12.77;9.53;;;0.80;99.90;;;;;;5115331;28;20158;-61
2023/01/20 01:46:06;;;;;;;13.33;9.30;;;0.80;99.90;;;;;;5115058;28;20234;-62
2023/01/20 01:48:43;;;;;;;14.03;9.57;;;0.80;99.90;;;;;;5115307;28;20668;-62
2023/01/20 01:51:14;;;;;;;14.43;9.67;;;0.80;99.90;;;;;;5115543;28;20196;-62
2023/01/20 01:54:02;;;;;;;13.23;9.53;;;0.90;99.90;;;;;;5115002;28;20159;-64
2023/01/20 01:56:29;;;;;;;13.33;8.80;;;0.90;99.90;;;;;;5113790;28;20244;-66
2023/01/20 01:59:00;;;;;;;14.50;9.97;;;1.00;99.90;;;;;;5115076;28;20282;-65
2023/01/20 02:01:27;;;;;;;13.53;9.23;;;1.00;99.90;;;;;;5115336;28;20194;-66
2023/01/20 02:04:03;;;;;;;13.47;8.93;;;1.00;99.90;;;;;;5115010;28;20235;-65
2023/01/20 02:06:32;;;;;;;14.80;9.83;;;0.90;99.90;;;;;;5114871;28;20298;-64
2023/01/20 02:09:00;;;;;;;12.37;8.70;;;0.90;99.90;;;;;;5114912;28;20172;-66
2023/01/20 02:11:28;;;;;;;13.70;9.43;;;0.90;99.90;;;;;;5114802;28;20528;-64
2023/01/20 02:13:54;;;;;;;13.70;8.93;;;1.00;99.90;;;;;;5096859;28;20178;-62
2023/01/20 02:16:41;;;;;;;13.37;9.17;;;1.00;99.90;;;;;;5114709;28;20182;-61
2023/01/20 02:19:21;;;;;;;15.90;10.27;;;1.00;99.90;;;;;;5114676;28;20247;-65
2023/01/20 02:21:53;;;;;;;17.07;10.33;;;1.00;99.90;;;;;;5114689;28;20315;-64
2023/01/20 02:24:41;;;;;;;16.53;10.67;;;1.10;99.90;;;;;;5114644;28;20159;-63
2023/01/20 02:27:31;;;;;;;14.87;9.70;;;1.10;99.90;;;;;;5114603;28;20268;-63
2023/01/20 02:30:17;;;;;;;16.20;9.37;;;1.10;99.90;;;;;;5114699;28;20175;-62
2023/01/20 02:32:59;;;;;;;16.13;10.60;;;1.10;99.90;;;;;;5096195;28;20632;-62
2023/01/20 02:35:30;;;;;;;11.50;9.13;;;1.00;99.90;;;;;;5114457;28;20174;-63
2023/01/20 02:38:29;;;;;;;13.50;9.60;;;1.00;99.90;;;;;;5114452;28;20164;-64
2023/01/20 02:41:04;;;;;;;15.57;9.87;;;1.00;99.90;;;;;;5106071;28;20194;-62
2023/01/20 02:44:02;;;;;;;11.40;8.27;;;0.90;99.90;;;;;;5114066;28;20666;-64
2023/01/20 02:46:37;;;;;;;13.07;10.07;;;1.00;99.90;;;;;;5114419;28;20261;-64
2023/01/20 02:49:27;;;;;;;13.97;9.83;;;0.90;99.90;;;;;;5114113;28;20169;-62
2023/01/20 02:52:03;;;;;;;14.07;9.23;;;0.90;99.90;;;;;;5113985;28;20625;-61
2023/01/20 02:54:32;;;;;;;15.33;9.30;;;0.90;99.90;;;;;;5113982;28;20252;-66
2023/01/20 02:57:02;;;;;;;15.23;9.03;;;0.90;99.90;;;;;;5114179;28;20180;-65
2023/01/20 02:59:36;;;;;;;13.30;9.07;;;1.00;99.90;;;;;;5113922;28;20183;-63
2023/01/20 03:02:06;;;;;;;12.23;8.93;;;1.00;99.90;;;;;;5113727;28;20167;-63
2023/01/20 03:04:57;;;;;;;12.77;8.40;;;1.10;99.90;;;;;;5113954;28;20160;-62
2023/01/20 03:07:27;;;;;;;12.20;9.37;;;1.10;99.90;;;;;;5113761;28;20203;-64
2023/01/20 03:09:56;;;;;;;11.17;8.97;;;1.00;99.90;;;;;;5113612;28;20168;-64
2023/01/20 03:12:22;;;;;;;12.80;9.23;;;1.00;99.90;;;;;;5113641;28;20191;-65
2023/01/20 03:14:50;;;;;;;12.43;9.43;;;1.00;99.90;;;;;;5113898;28;20495;-64
2023/01/20 03:17:17;;;;;;;12.47;9.20;;;1.00;99.90;;;;;;5113374;28;20180;-62
2023/01/20 03:19:43;;;;;;;12.60;9.30;;;1.00;99.90;;;;;;5113549;28;20200;-66
2023/01/20 03:22:09;;;;;;;11.47;9.27;;;1.00;99.90;;;;;;5113620;28;20175;-63
2023/01/20 03:24:37;;;;;;;14.43;8.70;;;1.00;99.90;;;;;;5080017;28;20196;-62
2023/01/20 03:27:04;;;;;;;12.40;9.27;;;1.00;99.90;;;;;;5114895;28;20285;-62
2023/01/20 03:29:31;;;;;;;13.10;9.13;;;0.90;99.90;;;;;;5113539;28;20179;-63
2023/01/20 03:31:59;;;;;;;14.70;9.03;;;0.80;99.90;;;;;;5113375;28;20168;-63
2023/01/20 03:34:27;;;;;;;12.47;9.03;;;0.80;99.90;;;;;;5113262;28;20159;-63
2023/01/20 03:36:54;;;;;;;12.73;9.03;;;0.80;99.90;;;;;;5113365;28;20247;-63
2023/01/20 03:39:22;;;;;;;12.23;8.70;;;0.80;99.90;;;;;;5113214;28;20173;-64
2023/01/20 03:42:13;;;;;;;16.10;9.93;;;0.70;99.90;;;;;;5095129;28;20698;-64
2023/01/20 03:44:45;;;;;;;12.00;9.27;;;0.70;99.90;;;;;;5112971;28;20637;-64
2023/01/20 03:47:33;;;;;;;12.63;8.63;;;0.80;99.90;;;;;;5113230;28;20210;-62
2023/01/20 03:50:23;;;;;;;12.80;9.70;;;0.80;99.90;;;;;;5113383;28;20195;-63
2023/01/20 03:53:00;;;;;;;9.33;7.47;;;0.80;99.90;;;;;;5113011;28;20168;-62
2023/01/20 03:55:34;;;;;;;15.37;9.23;;;0.80;99.90;;;;;;5113188;28;20160;-65
2023/01/20 03:58:05;;;;;;;11.33;8.77;;;0.80;99.90;;;;;;5113402;28;20162;-64
2023/01/20 04:00:35;;;;;;;12.03;8.93;;;0.80;99.90;;;;;;5113207;28;20168;-62
2023/01/20 04:03:06;;;;;;;13.83;9.53;;;0.80;99.90;;;;;;5112981;28;20229;-64
2023/01/20 04:05:33;;;;;;;11.23;8.53;;;0.80;99.90;;;;;;5113007;28;20206;-65
2023/01/20 04:08:02;;;;;;;12.43;9.13;;;0.70;99.90;;;;;;5112902;28;20172;-65
2023/01/20 04:10:31;;;;;;;10.80;8.40;;;0.70;99.90;;;;;;5113033;28;20178;-68
2023/01/20 04:12:56;;;;;;;11.00;8.43;;;0.70;99.90;;;;;;5112783;28;20183;-66
2023/01/20 04:15:24;;;;;;;9.23;7.50;;;0.70;99.90;;;;;;5112824;28;20567;-64
2023/01/20 04:17:50;;;;;;;13.43;8.60;;;0.70;99.90;;;;;;5113379;28;20183;-64
2023/01/20 04:20:18;;;;;;;13.03;9.00;;;0.70;99.90;;;;;;5117015;28;20192;-62
2023/01/20 04:22:57;;;;;;;11.07;8.50;;;0.70;99.90;;;;;;5116952;28;20217;-66
2023/01/20 04:25:30;;;;;;;12.03;8.87;;;0.70;99.90;;;;;;5117014;28;20176;-64
2023/01/20 04:27:56;;;;;;;13.17;9.13;;;0.70;99.90;;;;;;5117234;28;20164;-63
2023/01/20 04:30:22;;;;;;;10.87;8.30;;;0.70;99.90;;;;;;5116787;28;20183;-64
2023/01/20 04:32:48;;;;;;;14.53;9.27;;;0.70;99.90;;;;;;5116756;28;20174;-64
2023/01/20 04:35:16;;;;;;;14.27;8.47;;;0.70;99.90;;;;;;5116742;28;20227;-62
2023/01/20 04:37:42;;;;;;;11.57;8.57;;;0.70;99.90;;;;;;5116714;28;20163;-65
2023/01/20 04:40:09;;;;;;;11.97;8.53;;;0.60;99.90;;;;;;5116581;28;20180;-63
2023/01/20 04:42:34;;;;;;;13.97;8.90;;;0.60;99.90;;;;;;5098282;28;20174;-64
2023/01/20 04:45:00;;;;;;;12.17;8.73;;;0.50;99.90;;;;;;5116440;28;20222;-65
2023/01/20 04:47:30;;;;;;;15.17;9.83;;;0.50;99.90;;;;;;5116454;28;20207;-65
2023/01/20 04:49:55;;;;;;;12.50;8.90;;;0.50;99.90;;;;;;5116545;28;20164;-63
2023/01/20 04:52:21;;;;;;;11.70;8.87;;;0.40;99.90;;;;;;5116366;28;20645;-63
2023/01/20 04:54:47;;;;;;;11.47;8.40;;;0.40;99.90;;;;;;5097927;28;20203;-66
2023/01/20 04:57:13;;;;;;;11.80;8.70;;;0.40;99.90;;;;;;5116335;28;20171;-64
2023/01/20 04:59:40;;;;;;;11.70;8.87;;;0.40;99.90;;;;;;5116367;28;20661;-64
2023/01/20 05:02:06;;;;;;;13.57;8.90;;;0.40;99.90;;;;;;5116239;28;20194;-64
2023/01/20 05:04:31;;;;;;;13.50;9.97;;;0.60;99.90;;;;;;5116140;28;20195;-62
2023/01/20 05:06:57;;;;;;;18.37;9.13;;;0.60;99.90;;;;;;5115999;28;20621;-64
2023/01/20 05:09:23;;;;;;;12.30;8.67;;;0.70;99.90;;;;;;5116163;28;20178;-63
2023/01/20 05:11:49;;;;;;;13.27;9.37;;;0.70;99.90;;;;;;5115913;28;20184;-67
2023/01/20 05:14:14;;;;;;;15.67;9.20;;;0.70;99.90;;;;;;5115957;28;20191;-65
2023/01/20 05:16:40;;;;;;;12.67;9.00;;;0.70;99.90;;;;;;5105296;28;20181;-64
2023/01/20 05:19:06;;;;;;;13.03;8.90;;;0.70;99.90;;;;;;5116678;28;20643;-67
2023/01/20 05:21:32;;;;;;;14.00;8.33;;;0.70;99.90;;;;;;5115925;28;20171;-64
2023/01/20 05:23:58;;;;;;;11.50;8.67;;;0.80;99.90;;;;;;5115858;28;20174;-66
2023/01/20 05:26:25;;;;;;;13.40;9.20;;;0.80;99.90;;;;;;5097251;28;20608;-63
2023/01/20 05:28:51;;;;;;;12.63;8.67;;;0.70;99.90;;;;;;5115431;28;20172;-65
2023/01/20 05:31:17;;;;;;;10.57;7.50;;;0.70;99.90;;;;;;5115959;28;20170;-64
2023/01/20 05:33:43;;;;;;;12.77;8.57;;;0.70;99.90;;;;;;5115783;28;20174;-67
2023/01/20 05:36:10;;;;;;;14.00;9.20;;;0.70;99.90;;;;;;5115609;28;20184;-67
2023/01/20 05:38:37;;;;;;;11.53;8.50;;;0.70;99.90;;;;;;5097230;28;20179;-64
2023/01/20 05:41:05;;;;;;;10.10;7.80;;;0.70;99.90;;;;;;5115457;28;20183;-64
2023/01/20 05:43:31;;;;;;;10.43;8.07;;;0.70;99.90;;;;;;5115355;28;20166;-65
2023/01/20 05:45:57;;;;;;;10.33;7.27;;;0.60;99.90;;;;;;5115054;28;20230;-66
2023/01/20 05:48:24;;;;;;;9.40;7.10;;;0.60;99.90;;;;;;5115374;28;20173;-65
2023/01/20 05:50:50;;;;;;;10.37;6.17;;;0.60;99.90;;;;;;5115215;28;20175;-65
2023/01/20 05:53:17;;;;;;;6.97;6.27;;;0.60;99.90;;;;;;5115289;28;20171;-62
2023/01/20 05:55:43;;;;;;;7.77;6.67;;;0.70;99.90;;;;;;5115208;28;20639;-62
2023/01/20 05:58:09;;;;;;;8.33;5.60;;;0.70;99.90;;;;;;5115191;28;20172;-63
2023/01/20 06:00:35;;;;;;;9.77;5.63;;;0.60;99.90;;;;;;5115031;28;20533;-62
2023/01/20 06:03:01;;;;;;;10.17;5.83;;;0.60;99.90;;;;;;5114930;28;20171;-63
2023/01/20 06:05:27;;;;;;;5.87;5.13;;;0.60;99.90;;;;;;5114951;28;20174;-62
2023/01/20 06:07:56;;;;;;;6.67;5.30;;;0.60;99.90;;;;;;5114829;28;20202;-62
2023/01/20 06:10:31;;;;;;;5.33;4.83;;;0.50;99.90;;;;;;5114944;28;20163;-65
2023/01/20 06:12:57;;;;;;;6.57;4.87;;;0.40;99.90;;;;;;5114865;28;20166;-64
2023/01/20 06:15:24;;;;;;;7.57;5.83;;;0.50;99.90;;;;;;5114838;28;20167;-63
2023/01/20 06:17:50;;;;;;;8.00;5.50;;;0.60;99.90;;;;;;5114988;28;20267;-68
2023/01/20 06:20:17;;;;;;;6.27;5.47;;;0.70;99.90;;;;;;5114782;28;20171;-64
2023/01/20 06:22:43;;;;;;;6.10;5.47;;;0.80;99.90;;;;;;5114699;28;20163;-63
2023/01/20 06:25:09;;;;;;;6.57;5.67;;;0.80;99.90;;;;;;5114631;28;20169;-63
2023/01/20 06:27:36;;;;;;;9.80;5.60;;;0.70;99.90;;;;;;5114497;28;20203;-65
2023/01/20 06:30:05;;;;;;;9.80;6.93;;;0.70;99.90;;;;;;5114635;28;20221;-63
2023/01/20 06:32:31;;;;;;;6.60;5.57;;;0.80;99.90;;;;;;5114116;28;20171;-62
2023/01/20 06:34:57;;;;;;;8.13;7.20;;;0.80;99.90;;;;;;5114189;28;20531;-62
2023/01/20 06:37:22;;;;;;;9.40;7.20;;;0.80;99.90;;;;;;5113962;28;20671;-63
2023/01/20 06:39:48;;;;;;;11.27;7.50;;;0.80;99.90;;;;;;5114363;28;20216;-63
2023/01/20 06:42:14;;;;;;;9.13;8.20;;;0.80;99.90;;;;;;5095173;28;20184;-63
2023/01/20 06:44:40;;;;;;;13.50;9.40;;;0.80;99.90;;;;;;5095283;28;20179;-62
2023/01/20 06:47:06;;;;;;;12.90;8.27;;;0.70;99.90;;;;;;5113868;28;20287;-64
2023/01/20 06:49:32;;;;;;;11.87;8.47;;;0.80;99.90;;;;;;5113919;28;20574;-61
2023/01/20 06:51:58;;;;;;;13.37;9.13;;;0.80;99.90;;;;;;5114059;28;20650;-63
2023/01/20 06:54:26;;;;;;;14.83;9.33;;;0.80;99.90;;;;;;5095474;28;20628;-62
2023/01/20 06:56:51;;;;;;;15.30;8.10;;;0.80;99.90;;;;;;5113667;28;20191;-62
2023/01/20 06:59:17;;;;;;;13.47;8.90;;;0.90;99.90;;;;;;5113733;28;20164;-63
2023/01/20 07:01:43;;;;;;;12.63;8.33;;;1.00;99.90;;;;;;5113673;28;20182;-63
2023/01/20 07:04:12;;;;;;;13.07;8.80;;;1.10;99.90;;;;;;5113676;28;20538;-65
2023/01/20 07:06:39;;;;;;;12.97;9.20;;;1.20;99.90;;;;;;5114823;28;20252;-62
2023/01/20 07:09:07;;;;;;;14.10;8.77;;;1.20;99.90;;;;;;5114931;28;20197;-62
2023/01/20 07:11:36;;;;;;;11.60;8.60;;;1.20;99.90;;;;;;5118614;28;20173;-63
2023/01/20 07:14:03;;;;;;;11.93;8.43;;;1.20;99.90;;;;;;5113809;28;20199;-63
2023/01/20 07:16:29;;;;;;;11.77;8.53;;;1.10;99.90;;;;;;5113588;28;20179;-62
2023/01/20 07:18:56;;;;;;;9.53;7.53;;;1.10;99.90;;;;;;5113372;28;20205;-62
2023/01/20 07:21:22;;;;;;;11.10;7.77;;;1.20;99.90;;;;;;5113285;28;20167;-65
2023/01/20 07:23:48;;;;;;;11.63;6.73;;;1.30;99.90;;;;;;5112859;28;20176;-62
2023/01/20 07:26:17;;;;;;;8.40;5.93;;;1.30;99.90;;;;;;5113053;28;20197;-62
2023/01/20 07:28:43;;;;;;;11.53;8.10;;;1.40;99.90;;;;;;5113114;28;20630;-63
2023/01/20 07:31:20;;;;;;;10.13;7.13;;;1.50;99.90;;;;;;5113052;28;20582;-62
2023/01/20 07:33:46;;;;;;;10.77;7.80;;;1.50;99.90;;;;;;5113143;28;20188;-62
2023/01/20 07:36:14;;;;;;;15.23;8.23;;;1.60;99.90;;;;;;5113442;28;20193;-62
2023/01/20 07:38:40;;;;;;;12.93;7.90;;;1.50;99.90;;;;;;5113207;28;20167;-63
2023/01/20 07:41:14;;;;;;;10.50;8.13;;;1.50;99.90;;;;;;5113318;28;20178;-62
2023/01/20 07:43:43;;;;;;;12.80;8.70;;;1.40;99.90;;;;;;5113119;28;20159;-66
2023/01/20 07:46:10;;;;;;;14.87;9.07;;;1.40;99.90;;;;;;5112963;28;20219;-64
2023/01/20 07:48:36;;;;;;;12.20;8.70;;;1.50;99.90;;;;;;5112903;28;20649;-67
2023/01/20 07:51:04;;;;;;;11.87;9.20;;;1.50;99.90;;;;;;5112894;28;20178;-65
2023/01/20 07:53:32;;;;;;;14.07;9.33;;;1.60;99.90;;;;;;5112956;28;20186;-67
2023/01/20 07:56:21;;;;;;;11.30;8.43;;;1.60;99.90;;;;;;5112839;28;20167;-70
2023/01/20 07:58:49;;;;;;;13.53;9.80;;;1.60;99.90;;;;;;5112860;28;20314;-63
2023/01/20 08:01:22;;;;;;;11.90;8.50;;;1.60;99.90;;;;;;5112699;28;20215;-67
2023/01/20 08:03:48;;;;;;;10.60;8.53;;;1.60;99.90;;;;;;5112900;28;20196;-63
2023/01/20 08:06:17;;;;;;;11.80;8.60;;;1.60;99.90;;;;;;5112833;28;20211;-67
2023/01/20 08:08:43;;;;;;;12.03;8.77;;;1.60;99.90;;;;;;5112756;28;20171;-62
2023/01/20 08:11:12;;;;;;;7.50;6.27;;;1.70;99.90;;;;;;5112634;28;20640;-63
2023/01/20 08:13:39;;;;;;;11.30;8.30;;;1.60;99.90;;;;;;5094356;28;20325;-66
2023/01/20 08:16:07;;;;;;;10.63;8.00;;;1.70;99.90;;;;;;5112872;28;20183;-64
2023/01/20 08:18:34;;;;;;;16.63;10.27;;;1.70;99.90;;;;;;5112825;28;20179;-67
2023/01/20 08:21:05;;;;;;;12.03;8.93;;;1.70;99.90;;;;;;5113139;28;20186;-62
2023/01/20 08:23:32;;;;;;;12.70;9.50;;;1.80;99.90;;;;;;5112530;28;20169;-64
2023/01/20 08:26:04;;;;;;;14.87;9.53;;;1.90;99.90;;;;;;5112472;28;20215;-63
2023/01/20 08:28:31;;;;;;;7.23;6.13;;;2.00;99.90;;;;;;5112312;28;20192;-63
2023/01/20 08:31:14;;;;;;;9.47;6.23;;;1.80;99.90;;;;;;5111023;28;20202;-64
2023/01/20 08:33:41;;;;;;;6.00;4.97;;;1.90;99.90;;;;;;5112337;28;20267;-65
2023/01/20 08:36:12;;;;;;;3.30;2.50;;;2.00;99.90;;;;;;5112602;28;20184;-63
2023/01/20 08:38:39;;;;;;;2.37;1.97;;;2.00;99.90;;;;;;5112597;28;20155;-63
2023/01/20 08:41:11;;;;;;;2.53;2.40;;;2.10;99.30;;;;;;5112496;28;20168;-64
2023/01/20 08:43:37;;;;;;;2.33;2.23;;;2.00;98.50;;;;;;5112163;28;20192;-67
2023/01/20 08:46:06;;;;;;;4.77;2.33;;;2.00;98.90;;;;;;5112389;28;20220;-65
2023/01/20 08:48:33;;;;;;;2.40;2.20;;;2.00;98.30;;;;;;5112705;28;20198;-61
2023/01/20 08:51:01;;;;;;;5.33;1.93;;;2.00;97.80;;;;;;5112874;28;20527;-65
2023/01/20 08:53:27;;;;;;;1.93;1.83;;;2.10;97.50;;;;;;5112585;28;20195;-68
2023/01/20 08:55:55;;;;;;;2.30;2.10;;;2.00;97.40;;;;;;5112759;28;20639;-61
2023/01/20 08:58:21;;;;;;;2.27;2.17;;;2.00;97.50;;;;;;5112999;28;20532;-65
2023/01/20 09:00:47;;;;;;;2.13;2.00;;;2.10;97.60;;;;;;5114157;28;20167;-63
2023/01/20 09:03:13;;;;;;;4.33;1.93;;;2.20;97.50;;;;;;5113041;28;20287;-63
2023/01/20 09:05:39;;;;;;;2.30;2.20;;;2.20;96.70;;;;;;5115663;28;20630;-63
2023/01/20 09:08:05;;;;;;;2.00;1.90;;;2.20;97.00;;;;;;5116399;28;20179;-64
2023/01/20 09:10:34;;;;;;;2.60;2.00;;;2.30;97.10;;;;;;5116174;28;20185;-63
2023/01/20 09:13:00;;;;;;;2.13;2.00;;;2.30;96.40;;;;;;5115930;28;20286;-63
2023/01/20 09:15:26;;;;;;;2.60;2.00;;;2.30;96.20;;;;;;5097838;28;20677;-62
2023/01/20 09:17:52;;;;;;;2.13;2.00;;;2.30;96.40;;;;;;5116789;28;20268;-62
2023/01/20 09:20:18;;;;;;;2.07;1.80;;;2.20;96.30;;;;;;5118136;28;20649;-62
2023/01/20 09:22:44;;;;;;;2.13;2.03;;;2.30;96.40;;;;;;5116211;28;20202;-62
2023/01/20 09:25:10;;;;;;;1.90;1.80;;;2.30;96.60;;;;;;5097736;28;20202;-67
2023/01/20 09:27:36;;;;;;;2.27;2.17;;;2.40;96.60;;;;;;5115737;28;20207;-67
2023/01/20 09:30:03;;;;;;;2.03;1.93;;;2.40;96.20;;;;;;5115394;28;20175;-63
2023/01/20 09:32:29;;;;;;;2.00;1.90;;;2.50;96.10;;;;;;5115191;28;20213;-66
2023/01/20 09:34:55;;;;;;;2.10;2.00;;;2.50;96.00;;;;;;5115397;28;20207;-63
2023/01/20 09:46:19;;;;;;;2.50;1.87;;;2.50;95.90;;;;;;5114969;28;20225;-65
2023/01/20 09:54:47;;;;;;;1.73;1.73;;;2.50;96.10;;;;;;5114998;28;20165;-67
2023/01/20 09:57:13;;;;;;;2.10;2.00;;;2.40;95.50;;;;;;5114980;28;20163;-65
2023/01/20 09:59:54;;;;;;;4.90;2.10;;;2.40;95.60;;;;;;5114924;28;20578;-61
2023/01/20 10:02:24;;;;;;;2.27;1.97;;;2.40;95.60;;;;;;5115011;28;20680;-66
2023/01/20 10:04:57;;;;;;;2.33;2.13;;;2.30;95.40;;;;;;5114803;28;20163;-68
2023/01/20 10:07:35;;;;;;;2.47;2.27;;;2.40;96.00;;;;;;5096427;28;20206;-67
2023/01/20 10:10:16;;;;;;;2.77;2.43;;;2.30;95.60;;;;;;5096394;28;20644;-65
2023/01/20 10:12:52;;;;;;;2.17;1.97;;;2.40;95.40;;;;;;5097465;28;20166;-63
2023/01/20 10:15:28;;;;;;;3.17;2.07;;;2.30;95.50;;;;;;5114860;28;20150;-68
2023/01/20 10:18:06;;;;;;;2.20;2.10;;;2.40;95.40;;;;;;5114868;28;20166;-66
2023/01/20 10:21:12;;;;;;;2.47;2.37;;;2.30;95.60;;;;;;5096257;28;20190;-64
2023/01/20 10:24:19;;;;;;;2.20;2.00;;;2.30;95.60;;;;;;5114897;28;20175;-66
2023/01/20 10:27:00;;;;;;;2.87;2.20;;;2.30;95.40;;;;;;5086358;28;20258;-64
2023/01/20 10:29:35;;;;;;;2.17;2.07;;;2.30;95.50;;;;;;5114365;28;20494;-68
2023/01/20 10:32:23;;;;;;;2.33;2.13;;;2.30;95.30;;;;;;5114363;28;20171;-64
2023/01/20 10:34:53;;;;;;;1.70;1.60;;;2.30;95.40;;;;;;5114029;28;20188;-61
2023/01/20 10:37:21;;;;;;;2.80;2.40;;;2.30;95.10;;;;;;5114466;28;20171;-63
2023/01/20 10:39:51;;;;;;;2.30;2.10;;;2.30;95.10;;;;;;5114767;28;20179;-61
2023/01/20 10:42:18;;;;;;;2.37;2.27;;;2.30;95.20;;;;;;5114241;28;20168;-63
2023/01/20 10:44:46;;;;;;;2.67;2.10;;;2.40;95.10;;;;;;5114224;28;20524;-62
2023/01/20 10:47:23;;;;;;;2.20;2.10;;;2.30;94.90;;;;;;5114329;28;20199;-64
2023/01/20 10:50:03;;;;;;;2.17;1.97;;;2.40;95.00;;;;;;5114342;28;20171;-62
2023/01/20 10:53:03;;;;;;;3.20;2.00;;;2.40;94.90;;;;;;5123084;28;20181;-67
2023/01/20 10:56:05;;;;;;;2.00;1.90;;;2.50;95.10;;;;;;5114764;28;20171;-66
2023/01/20 10:58:34;;;;;;;1.90;1.80;;;2.50;94.90;;;;;;5114379;28;20163;-66
2023/01/20 11:01:04;;;;;;;2.33;2.13;;;2.50;94.90;;;;;;5113993;28;20170;-63
2023/01/20 11:03:39;;;;;;;2.30;2.10;;;2.50;94.80;;;;;;5113801;28;20204;-64
2023/01/20 11:06:06;;;;;;;2.20;2.10;;;2.50;94.90;;;;;;5113902;28;20194;-63
2023/01/20 11:08:31;;;;;;;1.90;1.80;;;2.40;94.90;;;;;;5113842;28;20702;-66
2023/01/20 11:11:16;;;;;;;2.13;2.03;;;2.40;94.90;;;;;;5113777;28;20297;-65
2023/01/20 11:13:42;;;;;;;2.10;2.00;;;2.40;94.90;;;;;;5114019;28;20175;-63
2023/01/20 11:16:28;;;;;;;1.57;1.57;;;2.50;94.60;;;;;;5113729;28;20683;-65
2023/01/20 11:19:00;;;;;;;2.10;2.00;;;2.50;94.50;;;;;;5113573;28;20591;-64
2023/01/20 11:21:32;;;;;;;2.40;2.20;;;2.50;94.70;;;;;;5113741;28;20253;-67
2023/01/20 11:23:58;;;;;;;2.30;2.17;;;2.60;94.50;;;;;;5113894;28;20602;-67
2023/01/20 11:26:33;;;;;;;2.60;2.37;;;2.60;94.60;;;;;;5114276;28;20234;-69
2023/01/20 11:29:08;;;;;;;1.93;1.83;;;2.70;94.50;;;;;;5114041;28;20288;-70
2023/01/20 11:31:41;;;;;;;2.30;2.10;;;2.70;94.40;;;;;;5113627;28;20578;-68
2023/01/20 11:34:27;;;;;;;2.83;2.20;;;2.80;94.70;;;;;;5113388;28;20168;-67
2023/01/20 11:37:04;;;;;;;2.47;2.37;;;2.90;94.50;;;;;;5113680;28;20238;-62
2023/01/20 11:39:32;;;;;;;3.37;2.10;;;2.90;94.50;;;;;;5113381;28;20228;-66
2023/01/20 11:42:14;;;;;;;2.20;2.00;;;2.90;94.30;;;;;;5113380;28;20525;-62
2023/01/20 11:44:46;;;;;;;2.40;2.30;;;3.00;94.40;;;;;;5094852;28;20667;-69
2023/01/20 11:47:23;;;;;;;3.87;2.10;;;3.10;94.30;;;;;;5095004;28;20281;-70
2023/01/20 11:50:07;;;;;;;2.57;2.37;;;3.10;94.40;;;;;;5094947;28;20657;-70
2023/01/20 11:52:38;;;;;;;2.47;2.27;;;3.00;94.20;;;;;;5113126;28;20163;-68
2023/01/20 11:55:12;;;;;;;2.53;2.37;;;3.00;94.20;;;;;;5113219;28;20233;-69
2023/01/20 11:57:43;;;;;;;2.07;1.97;;;3.00;94.30;;;;;;5113165;28;20653;-69
2023/01/20 12:00:32;;;;;;;2.80;2.60;;;3.00;94.20;;;;;;5095792;28;20170;-68
2023/01/20 12:03:03;;;;;;;2.33;2.20;;;3.10;94.40;;;;;;5113057;28;20157;-67
2023/01/20 12:05:44;;;;;;;2.27;2.10;;;3.10;94.20;;;;;;5113122;28;20161;-67
2023/01/20 12:08:22;;;;;;;2.80;2.60;;;3.20;94.20;;;;;;5112969;28;20214;-69
2023/01/20 12:10:49;;;;;;;2.37;2.17;;;3.20;94.10;;;;;;5113224;28;20186;-64
2023/01/20 12:13:20;;;;;;;2.90;2.60;;;3.20;93.90;;;;;;5112965;28;20172;-61
2023/01/20 12:15:53;;;;;;;4.47;2.53;;;3.20;94.30;;;;;;5113374;28;20259;-62
2023/01/20 12:18:37;;;;;;;2.60;2.40;;;3.20;94.20;;;;;;5113073;28;20165;-64
2023/01/20 12:21:17;;;;;;;2.33;2.10;;;3.30;94.10;;;;;;5112871;28;20176;-62
2023/01/20 12:23:48;;;;;;;2.23;2.13;;;3.20;94.00;;;;;;5113420;28;20196;-61
2023/01/20 12:26:18;;;;;;;2.73;2.53;;;3.20;94.00;;;;;;5112954;28;20227;-62
2023/01/20 12:28:53;;;;;;;2.47;2.27;;;3.20;94.30;;;;;;5112991;28;20168;-62
2023/01/20 12:31:22;;;;;;;3.07;2.50;;;3.30;94.20;;;;;;5113262;28;20184;-62
2023/01/20 12:33:52;;;;;;;3.63;2.37;;;3.30;94.00;;;;;;5094835;28;20516;-66
2023/01/20 12:36:43;;;;;;;2.40;2.30;;;3.30;94.20;;;;;;5112973;28;20167;-68
2023/01/20 12:39:28;;;;;;;4.10;2.53;;;3.40;94.50;;;;;;5114551;28;20160;-66
2023/01/20 12:42:16;;;;;;;2.57;2.37;;;3.50;94.80;;;;;;5120353;28;20158;-66
2023/01/20 12:44:48;;;;;;;2.77;2.57;;;3.60;94.50;;;;;;5121790;28;20585;-64
2023/01/20 12:47:14;;;;;;;2.80;2.20;;;3.60;94.30;;;;;;5116810;28;20206;-61
2023/01/20 12:50:03;;;;;;;3.07;2.63;;;3.50;94.30;;;;;;5116491;28;20266;-67
2023/01/20 12:52:47;;;;;;;2.53;2.33;;;3.50;94.60;;;;;;5105349;28;20189;-63
2023/01/20 12:55:48;;;;;;;2.80;2.63;;;3.40;94.30;;;;;;5116700;28;20532;-63
2023/01/20 12:58:20;;;;;;;5.70;2.43;;;3.40;94.40;;;;;;5098413;28;20739;-66
2023/01/20 13:01:14;;;;;;;2.30;2.10;;;3.30;94.50;;;;;;5116394;28;20495;-67
2023/01/20 13:04:08;;;;;;;2.43;2.23;;;3.30;95.10;;;;;;5116258;28;20574;-69
2023/01/20 13:06:57;;;;;;;2.47;2.37;;;3.30;94.80;;;;;;5116155;28;20265;-63
2023/01/20 13:09:56;;;;;;;2.30;2.20;;;3.30;94.70;;;;;;5105227;28;20188;-66
2023/01/20 13:12:28;;;;;;;2.50;2.30;;;3.30;94.70;;;;;;5116022;28;20224;-65
2023/01/20 13:15:16;;;;;;;2.50;2.40;;;3.30;94.70;;;;;;5116169;28;20183;-66
2023/01/20 13:18:15;;;;;;;2.70;2.60;;;3.20;94.90;;;;;;5116124;28;20215;-68
2023/01/20 13:20:44;;;;;;;2.23;2.13;;;3.30;95.10;;;;;;5033006;28;20211;-68
2023/01/20 13:23:16;;;;;;;2.23;2.03;;;3.40;94.80;;;;;;5033396;28;20188;-63
2023/01/20 13:25:45;;;;;;;2.10;2.00;;;3.30;95.00;;;;;;5033185;28;20183;-62